createdAt,value
2022-10-31T00:01:19.004Z,3.88
2022-10-31T00:04:23.144Z,5.30
2022-10-31T00:07:27.152Z,4.20
2022-10-31T00:10:31.051Z,4.82
2022-10-31T00:13:34.180Z,5.95
2022-10-31T00:16:38.262Z,3.75
2022-10-31T00:19:42.368Z,5.20
2022-10-31T00:22:46.081Z,4.90
2022-10-31T00:25:50.208Z,5.22
2022-10-31T00:28:54.080Z,3.80
2022-10-31T00:31:57.437Z,3.40
2022-10-31T00:35:00.587Z,3.20
2022-10-31T00:38:03.722Z,3.55
2022-10-31T00:41:07.524Z,2.58
2022-10-31T00:44:11.396Z,2.33
2022-10-31T00:47:16.022Z,2.38
2022-10-31T00:50:19.536Z,2.70
2022-10-31T00:53:22.724Z,2.70
2022-10-31T00:56:26.186Z,1.95
2022-10-31T00:59:29.477Z,2.03
2022-10-31T01:02:33.831Z,2.35
2022-10-31T01:05:37.250Z,3.07
2022-10-31T01:08:41.944Z,2.75
2022-10-31T01:11:48.775Z,2.17
2022-10-31T01:14:53.167Z,2.90
2022-10-31T01:17:57.142Z,2.60
2022-10-31T01:21:24.021Z,3.53
2022-10-31T01:24:27.635Z,2.65
2022-10-31T01:27:31.124Z,2.97
2022-10-31T01:30:35.352Z,2.15
2022-10-31T01:33:39.768Z,2.35
2022-10-31T01:36:43.662Z,2.80
2022-10-31T01:39:46.695Z,2.10
2022-10-31T01:42:50.158Z,2.63
2022-10-31T01:45:55.755Z,2.70
2022-10-31T01:49:03.460Z,2.35
2022-10-31T01:52:06.721Z,2.67
2022-10-31T01:55:17.518Z,2.63
2022-10-31T01:58:31.287Z,4.85
2022-10-31T02:01:35.055Z,3.25
2022-10-31T02:04:40.086Z,2.70
2022-10-31T02:07:50.706Z,2.90
2022-10-31T02:10:56.488Z,3.00
2022-10-31T02:14:03.468Z,2.53
2022-10-31T02:17:07.250Z,2.72
2022-10-31T02:20:21.149Z,2.92
2022-10-31T02:23:55.075Z,3.00
2022-10-31T02:27:37.604Z,2.50
2022-10-31T02:30:56.288Z,2.00
2022-10-31T02:34:32.942Z,3.08
2022-10-31T02:37:35.904Z,2.50
2022-10-31T02:40:50.245Z,1.83
2022-10-31T02:44:43.206Z,2.33
2022-10-31T02:47:48.427Z,2.88
2022-10-31T02:50:57.466Z,1.73
2022-10-31T02:54:01.698Z,2.05
2022-10-31T02:57:09.498Z,2.20
2022-10-31T03:00:14.015Z,2.03
2022-10-31T03:03:51.581Z,1.90
2022-10-31T03:07:11.769Z,2.00
2022-10-31T03:10:29.758Z,1.92
2022-10-31T03:13:51.456Z,1.90
2022-10-31T03:16:59.407Z,1.80
2022-10-31T03:20:05.162Z,3.03
2022-10-31T03:23:12.824Z,1.10
2022-10-31T03:26:17.754Z,2.97
2022-10-31T03:29:24.238Z,1.70
2022-10-31T03:32:40.286Z,1.63
2022-10-31T03:35:48.692Z,1.60
2022-10-31T03:38:52.886Z,2.25
2022-10-31T03:42:00.904Z,1.90
2022-10-31T03:45:08.064Z,2.13
2022-10-31T03:48:11.462Z,2.07
2022-10-31T03:51:21.031Z,1.50
2022-10-31T03:54:27.616Z,1.80
2022-10-31T03:57:41.455Z,2.00
2022-10-31T04:00:47.798Z,2.30
2022-10-31T04:03:51.860Z,3.70
2022-10-31T04:06:57.841Z,2.75
2022-10-31T04:10:04.492Z,1.63
2022-10-31T04:13:13.178Z,1.77
2022-10-31T04:16:23.988Z,3.10
2022-10-31T04:19:27.935Z,3.40
2022-10-31T04:22:32.161Z,3.13
2022-10-31T04:25:36.559Z,2.33
2022-10-31T04:28:41.005Z,1.60
2022-10-31T04:31:44.896Z,2.53
2022-10-31T04:34:49.545Z,1.70
2022-10-31T04:37:52.656Z,1.30
2022-10-31T04:40:56.785Z,1.42
2022-10-31T04:44:30.578Z,1.45
2022-10-31T04:47:37.772Z,1.70
2022-10-31T04:50:42.748Z,1.43
2022-10-31T04:53:45.932Z,1.73
2022-10-31T04:57:09.912Z,1.63
2022-10-31T05:00:16.631Z,2.05
2022-10-31T05:03:21.202Z,1.75
2022-10-31T05:06:24.289Z,1.87
2022-10-31T05:09:27.403Z,1.83
2022-10-31T05:12:31.160Z,1.80
2022-10-31T05:15:44.133Z,1.30
2022-10-31T05:19:13.763Z,1.70
2022-10-31T05:22:37.003Z,1.37
2022-10-31T05:25:42.332Z,1.67
2022-10-31T05:28:46.724Z,3.53
2022-10-31T05:31:50.570Z,3.97
2022-10-31T05:35:38.805Z,1.85
2022-10-31T05:39:08.954Z,2.13
2022-10-31T05:42:18.649Z,2.15
2022-10-31T05:45:23.407Z,1.52
2022-10-31T05:48:32.705Z,0.95
2022-10-31T05:52:11.591Z,1.10
2022-10-31T05:55:22.740Z,1.40
2022-10-31T05:58:40.685Z,1.48
2022-10-31T06:01:45.271Z,1.40
2022-10-31T06:05:08.682Z,1.35
2022-10-31T06:08:13.033Z,1.40
2022-10-31T06:11:17.975Z,1.40
2022-10-31T06:14:42.291Z,1.83
2022-10-31T06:17:46.102Z,2.85
2022-10-31T06:21:01.844Z,2.55
2022-10-31T06:24:06.419Z,3.10
2022-10-31T06:27:33.018Z,2.97
2022-10-31T06:30:42.481Z,2.35
2022-10-31T06:33:47.616Z,2.10
2022-10-31T06:36:51.230Z,2.20
2022-10-31T06:39:58.234Z,1.70
2022-10-31T06:43:02.670Z,1.73
2022-10-31T06:46:08.403Z,3.30
2022-10-31T06:49:19.167Z,2.78
2022-10-31T06:52:35.670Z,3.20
2022-10-31T06:55:40.482Z,3.33
2022-10-31T06:58:44.308Z,5.47
2022-10-31T07:01:48.312Z,2.60
2022-10-31T07:04:51.692Z,3.25
2022-10-31T07:08:03.831Z,2.88
2022-10-31T07:11:07.769Z,3.05
2022-10-31T07:14:11.637Z,2.40
2022-10-31T07:17:15.283Z,2.28
2022-10-31T07:20:21.450Z,2.20
2022-10-31T07:23:26.434Z,2.10
2022-10-31T07:26:49.045Z,3.25
2022-10-31T07:29:53.400Z,4.00
2022-10-31T07:32:57.280Z,3.60
2022-10-31T07:36:18.196Z,3.58
2022-10-31T07:39:24.238Z,4.47
2022-10-31T07:42:27.550Z,3.53
2022-10-31T07:45:31.689Z,3.83
2022-10-31T07:49:01.336Z,3.00
2022-10-31T07:52:17.043Z,3.45
2022-10-31T07:55:49.864Z,3.53
2022-10-31T07:58:55.506Z,2.78
2022-10-31T08:01:58.709Z,2.57
2022-10-31T08:05:25.081Z,3.20
2022-10-31T08:08:55.940Z,3.45
2022-10-31T08:11:59.684Z,4.60
2022-10-31T08:15:05.986Z,4.32
2022-10-31T08:18:14.790Z,4.20
2022-10-31T08:21:19.526Z,5.20
2022-10-31T08:24:23.796Z,5.80
2022-10-31T08:27:27.441Z,4.68
2022-10-31T08:30:36.257Z,4.90
2022-10-31T08:33:59.065Z,6.53
2022-10-31T08:37:35.089Z,5.70
2022-10-31T08:40:41.157Z,8.13
2022-10-31T08:43:44.716Z,7.22
2022-10-31T08:46:49.206Z,7.18
2022-10-31T08:49:52.282Z,5.60
2022-10-31T08:53:05.956Z,7.15
2022-10-31T08:56:10.485Z,4.50
2022-10-31T08:59:13.922Z,2.83
2022-10-31T09:02:39.930Z,3.30
2022-10-31T09:05:44.276Z,2.50
2022-10-31T09:08:48.297Z,2.05
2022-10-31T09:11:51.481Z,5.70
2022-10-31T09:15:17.389Z,5.63
2022-10-31T09:18:25.425Z,3.95
2022-10-31T09:21:34.541Z,3.17
2022-10-31T09:24:38.524Z,3.53
2022-10-31T09:27:41.532Z,5.55
2022-10-31T09:30:52.346Z,5.80
2022-10-31T09:34:15.556Z,8.88
2022-10-31T09:37:22.912Z,10.80
2022-10-31T09:40:36.224Z,8.82
2022-10-31T09:43:54.850Z,13.30
2022-10-31T09:47:16.172Z,13.27
2022-10-31T09:50:51.587Z,10.85
2022-10-31T09:54:46.997Z,8.88
2022-10-31T09:57:50.406Z,8.73
2022-10-31T10:00:58.003Z,8.02
2022-10-31T10:04:18.321Z,6.38
2022-10-31T10:08:25.409Z,7.03
2022-10-31T10:12:08.065Z,7.38
2022-10-31T10:16:01.878Z,6.93
2022-10-31T10:19:27.388Z,6.32
2022-10-31T10:22:33.466Z,6.25
2022-10-31T10:25:43.747Z,7.73
2022-10-31T10:28:59.210Z,7.03
2022-10-31T10:32:12.481Z,7.22
2022-10-31T10:35:21.277Z,7.70
2022-10-31T10:38:36.190Z,7.73
2022-10-31T10:41:43.789Z,7.68
2022-10-31T10:45:08.194Z,7.60
2022-10-31T10:48:22.122Z,9.23
2022-10-31T10:55:20.010Z,7.22
2022-10-31T10:58:22.995Z,10.82
2022-10-31T11:01:27.460Z,7.85
2022-10-31T11:04:34.584Z,8.00
2022-10-31T11:07:43.351Z,10.35
2022-10-31T11:10:46.537Z,10.45
2022-10-31T11:13:51.727Z,10.52
2022-10-31T11:17:12.669Z,10.93
2022-10-31T11:20:18.873Z,10.90
2022-10-31T11:23:25.069Z,8.48
2022-10-31T11:26:28.047Z,6.78
2022-10-31T11:29:31.090Z,5.17
2022-10-31T11:32:34.220Z,4.57
2022-10-31T11:35:41.645Z,3.28
2022-10-31T11:38:46.286Z,3.73
2022-10-31T11:41:51.959Z,4.63
2022-10-31T11:44:57.030Z,8.02
2022-10-31T11:48:02.655Z,6.93
2022-10-31T11:51:07.009Z,8.07
2022-10-31T11:54:23.822Z,7.05
2022-10-31T11:57:57.439Z,8.65
2022-10-31T12:01:00.608Z,5.15
2022-10-31T12:04:14.867Z,6.57
2022-10-31T12:07:17.851Z,4.20
2022-10-31T12:10:26.856Z,4.18
2022-10-31T12:13:49.987Z,4.47
2022-10-31T12:17:07.518Z,4.13
2022-10-31T12:20:35.353Z,4.30
2022-10-31T12:23:50.955Z,4.45
2022-10-31T12:27:31.397Z,4.40
2022-10-31T12:30:58.621Z,4.83
2022-10-31T12:34:01.788Z,4.18
2022-10-31T12:37:36.340Z,3.35
2022-10-31T12:41:03.564Z,3.42
2022-10-31T12:44:28.234Z,3.23
2022-10-31T12:47:46.719Z,3.75
2022-10-31T12:51:11.902Z,3.67
2022-10-31T12:54:48.103Z,3.22
2022-10-31T12:57:56.310Z,3.27
2022-10-31T13:01:29.046Z,2.55
2022-10-31T13:04:42.797Z,2.92
2022-10-31T13:07:59.065Z,2.87
2022-10-31T13:11:13.599Z,2.88
2022-10-31T13:14:38.632Z,2.58
2022-10-31T13:17:48.685Z,2.00
2022-10-31T13:20:55.706Z,1.65
2022-10-31T13:24:02.340Z,2.03
2022-10-31T13:27:16.903Z,2.80
2022-10-31T13:30:25.446Z,2.57
2022-10-31T13:33:44.999Z,3.42
2022-10-31T13:36:59.476Z,4.35
2022-10-31T13:40:16.998Z,3.43
2022-10-31T13:43:27.595Z,4.40
2022-10-31T13:46:34.123Z,2.47
2022-10-31T13:49:41.121Z,4.93
2022-10-31T13:52:44.883Z,7.68
2022-10-31T13:56:05.138Z,4.93
2022-10-31T13:59:11.457Z,6.72
2022-10-31T14:02:18.831Z,11.50
2022-10-31T14:05:32.769Z,9.15
2022-10-31T14:08:39.216Z,6.25
2022-10-31T14:11:48.385Z,5.07
2022-10-31T14:14:57.096Z,3.90
2022-10-31T14:18:08.480Z,4.05
2022-10-31T14:21:30.055Z,3.65
2022-10-31T14:24:36.172Z,3.50
2022-10-31T14:27:47.818Z,3.85
2022-10-31T14:30:59.968Z,2.97
2022-10-31T14:34:21.859Z,3.30
2022-10-31T14:37:34.270Z,2.58
2022-10-31T14:41:01.559Z,2.47
2022-10-31T14:44:22.894Z,2.60
2022-10-31T14:47:37.614Z,1.90
2022-10-31T14:50:50.904Z,2.47
2022-10-31T14:53:56.700Z,2.50
2022-10-31T14:57:08.144Z,2.10
2022-10-31T15:00:21.243Z,1.92
2022-10-31T15:03:31.646Z,2.60
2022-10-31T15:06:48.182Z,4.90
2022-10-31T15:10:23.246Z,4.63
2022-10-31T15:13:27.347Z,2.47
2022-10-31T15:16:44.634Z,2.13
2022-10-31T15:19:47.909Z,3.17
2022-10-31T15:22:52.127Z,2.83
2022-10-31T15:26:03.174Z,3.10
2022-10-31T15:29:12.986Z,3.57
2022-10-31T15:32:55.294Z,7.88
2022-10-31T15:36:04.453Z,5.72
2022-10-31T15:39:11.258Z,4.87
2022-10-31T15:42:22.655Z,4.30
2022-10-31T15:45:28.932Z,4.10
2022-10-31T15:48:33.463Z,2.28
2022-10-31T15:51:39.135Z,4.30
2022-10-31T15:54:49.593Z,3.67
2022-10-31T15:58:00.566Z,2.58
2022-10-31T16:01:06.965Z,1.97
2022-10-31T16:04:14.095Z,2.67
2022-10-31T16:07:23.294Z,3.28
2022-10-31T16:10:27.895Z,3.03
2022-10-31T16:13:34.233Z,2.70
2022-10-31T16:16:46.075Z,2.20
2022-10-31T16:19:52.581Z,2.50
2022-10-31T16:22:58.816Z,2.63
2022-10-31T16:26:07.127Z,2.60
2022-10-31T16:29:28.525Z,2.30
2022-10-31T16:32:59.994Z,3.10
2022-10-31T16:36:35.262Z,2.13
2022-10-31T16:39:39.597Z,4.70
2022-10-31T16:42:44.460Z,4.10
2022-10-31T16:45:51.477Z,5.07
2022-10-31T16:48:55.848Z,1.20
2022-10-31T16:51:59.475Z,1.27
2022-10-31T16:55:03.197Z,1.48
2022-10-31T16:58:13.391Z,2.65
2022-10-31T17:01:16.950Z,1.67
2022-10-31T17:04:20.031Z,0.90
2022-10-31T17:07:24.005Z,0.80
2022-10-31T17:10:28.304Z,2.40
2022-10-31T17:13:34.472Z,2.20
2022-10-31T17:16:38.224Z,0.82
2022-10-31T17:19:42.277Z,1.67
2022-10-31T17:22:46.042Z,1.30
2022-10-31T17:25:49.949Z,0.65
2022-10-31T17:28:52.755Z,1.40
2022-10-31T17:31:56.047Z,2.10
2022-10-31T17:34:59.695Z,2.13
2022-10-31T17:38:02.666Z,1.75
2022-10-31T17:41:11.276Z,2.10
2022-10-31T17:44:14.702Z,1.70
2022-10-31T17:47:17.683Z,2.00
2022-10-31T17:50:23.479Z,2.20
2022-10-31T17:53:30.000Z,1.58
2022-10-31T17:56:34.337Z,2.17
2022-10-31T17:59:37.365Z,1.67
2022-10-31T18:02:41.267Z,2.95
2022-10-31T18:05:56.672Z,2.83
2022-10-31T18:09:04.594Z,2.30
2022-10-31T18:12:08.332Z,2.00
2022-10-31T18:15:11.493Z,2.30
2022-10-31T18:18:14.352Z,2.28
2022-10-31T18:21:18.921Z,1.45
2022-10-31T18:24:21.791Z,2.80
2022-10-31T18:27:25.725Z,2.90
2022-10-31T18:30:28.550Z,2.47
2022-10-31T18:33:31.880Z,3.00
2022-10-31T18:36:34.999Z,2.87
2022-10-31T18:39:38.231Z,3.33
2022-10-31T18:42:41.293Z,3.33
2022-10-31T18:45:47.446Z,3.20
2022-10-31T18:48:52.475Z,2.70
2022-10-31T18:51:56.634Z,2.53
2022-10-31T18:54:59.571Z,2.60
2022-10-31T18:58:03.076Z,2.15
2022-10-31T19:01:10.274Z,1.90
2022-10-31T19:04:14.722Z,1.70
2022-10-31T19:07:17.623Z,1.30
2022-10-31T19:10:21.586Z,1.63
2022-10-31T19:13:24.528Z,2.47
2022-10-31T19:16:28.685Z,2.50
2022-10-31T19:19:32.378Z,2.20
2022-10-31T19:22:35.787Z,2.70
2022-10-31T19:25:39.894Z,2.67
2022-10-31T19:28:43.765Z,7.05
2022-10-31T19:31:48.784Z,4.13
2022-10-31T19:34:52.495Z,2.90
2022-10-31T19:37:56.946Z,3.57
2022-10-31T19:41:04.123Z,2.78
2022-10-31T19:44:11.833Z,2.65
2022-10-31T19:47:20.244Z,3.10
2022-10-31T19:50:23.340Z,6.13
2022-10-31T19:53:26.407Z,6.60
2022-10-31T19:56:30.146Z,3.78
2022-10-31T19:59:38.959Z,3.17
2022-10-31T20:02:42.784Z,3.35
2022-10-31T20:05:47.658Z,3.17
2022-10-31T20:08:53.228Z,17.30
2022-10-31T20:11:57.811Z,7.88
2022-10-31T20:15:01.052Z,3.92
2022-10-31T20:18:04.118Z,2.00
2022-10-31T20:21:11.209Z,2.25
2022-10-31T20:24:14.723Z,3.15
2022-10-31T20:27:19.023Z,1.63
2022-10-31T20:30:22.588Z,1.20
2022-10-31T20:33:27.341Z,1.20
2022-10-31T20:36:31.449Z,1.92
2022-10-31T20:39:37.524Z,2.00
2022-10-31T20:42:41.085Z,2.17
2022-10-31T20:45:44.384Z,1.83
2022-10-31T20:48:48.935Z,2.00
2022-10-31T20:51:52.620Z,1.20
2022-10-31T20:54:56.612Z,1.73
2022-10-31T20:58:00.535Z,1.38
2022-10-31T21:01:04.532Z,2.17
2022-10-31T21:04:10.442Z,3.60
2022-10-31T21:07:13.987Z,4.25
2022-10-31T21:10:17.550Z,4.57
2022-10-31T21:13:21.218Z,5.18
2022-10-31T21:16:26.811Z,3.42
2022-10-31T21:19:30.697Z,2.90
2022-10-31T21:22:35.222Z,3.35
2022-10-31T21:25:41.204Z,3.45
2022-10-31T21:28:44.859Z,2.88
2022-10-31T21:31:50.271Z,2.55
2022-10-31T21:34:53.254Z,4.38
2022-10-31T21:37:59.106Z,9.15
2022-10-31T21:41:08.842Z,9.20
2022-10-31T21:44:11.903Z,5.03
2022-10-31T21:47:15.170Z,4.70
2022-10-31T21:50:19.212Z,4.50
2022-10-31T21:53:40.589Z,4.95
2022-10-31T21:56:45.082Z,9.77
2022-10-31T21:59:49.052Z,10.95
2022-10-31T22:02:52.057Z,9.02
2022-10-31T22:05:59.727Z,8.60
2022-10-31T22:09:06.210Z,11.50
2022-10-31T22:12:10.301Z,6.67
2022-10-31T22:15:14.369Z,5.60
2022-10-31T22:18:17.966Z,5.65
2022-10-31T22:21:24.755Z,6.60
2022-10-31T22:24:27.739Z,7.57
2022-10-31T22:27:31.773Z,6.68
2022-10-31T22:30:39.291Z,7.18
2022-10-31T22:33:43.087Z,8.00
2022-10-31T22:36:47.100Z,8.88
2022-10-31T22:39:50.009Z,8.75
2022-10-31T22:42:54.043Z,8.50
2022-10-31T22:46:01.356Z,8.45
2022-10-31T22:49:22.275Z,13.18
2022-10-31T22:52:25.194Z,14.23
2022-10-31T22:55:28.258Z,12.10
2022-10-31T22:58:33.270Z,18.08
2022-10-31T23:01:37.454Z,17.17
2022-10-31T23:04:40.498Z,22.63
2022-10-31T23:07:43.383Z,24.27
2022-10-31T23:10:46.423Z,15.48
2022-10-31T23:14:10.986Z,14.00
2022-10-31T23:17:18.141Z,8.80
2022-10-31T23:20:21.855Z,6.65
2022-10-31T23:23:24.760Z,5.03
2022-10-31T23:26:45.935Z,4.15
2022-10-31T23:29:58.429Z,3.60
2022-10-31T23:33:02.837Z,6.55
2022-10-31T23:36:06.931Z,5.03
2022-10-31T23:39:10.993Z,7.80
2022-10-31T23:42:15.971Z,14.45
2022-10-31T23:45:20.171Z,5.83
2022-10-31T23:48:23.786Z,8.73
2022-10-31T23:51:27.723Z,7.80
2022-10-31T23:54:31.087Z,8.00
2022-10-31T23:57:35.074Z,8.65
